TimeCDT,TemperatureF,Dew PointF,Humidity,Sea Level PressureIn,VisibilityMPH,Wind Direction,Wind SpeedMPH,Gust SpeedMPH,PrecipitationIn,Events,Conditions,WindDirDegrees,DateUTC
12:15 AM,64.4,46.4,52,29.96,10.0,SE,6.9,-,N/A,,Clear,140,2013-05-08 05:15:00
12:35 AM,64.4,46.4,52,29.96,10.0,SE,4.6,-,N/A,,Partly Cloudy,130,2013-05-08 05:35:00
12:55 AM,64.4,46.4,52,29.96,10.0,SE,5.8,-,N/A,,Partly Cloudy,130,2013-05-08 05:55:00
1:15 AM,64.4,46.4,52,29.95,10.0,Calm,Calm,-,N/A,,Scattered Clouds,0,2013-05-08 06:15:00
1:35 AM,64.4,46.4,52,29.95,10.0,Calm,Calm,-,N/A,,Mostly Cloudy,0,2013-05-08 06:35:00
1:55 AM,64.4,48.2,56,29.96,10.0,NNE,3.5,-,N/A,,Scattered Clouds,20,2013-05-08 06:55:00
2:15 AM,64.4,48.2,56,29.97,10.0,Calm,Calm,-,N/A,,Scattered Clouds,0,2013-05-08 07:15:00
2:35 AM,59.0,48.2,67,29.97,10.0,Calm,Calm,-,N/A,,Scattered Clouds,0,2013-05-08 07:35:00
2:55 AM,59.0,48.2,67,29.97,10.0,Calm,Calm,-,N/A,,Scattered Clouds,0,2013-05-08 07:55:00
3:15 AM,57.2,48.2,72,29.97,10.0,ESE,4.6,-,N/A,,Mostly Cloudy,120,2013-05-08 08:15:00
3:35 AM,59.0,48.2,67,29.96,10.0,South,3.5,-,N/A,,Mostly Cloudy,170,2013-05-08 08:35:00
3:55 AM,60.8,48.2,63,29.95,10.0,Calm,Calm,-,N/A,,Scattered Clouds,0,2013-05-08 08:55:00
4:15 AM,59.0,48.2,67,29.95,10.0,SE,5.8,-,N/A,,Mostly Cloudy,140,2013-05-08 09:15:00
4:35 AM,59.0,48.2,67,29.95,10.0,SE,6.9,-,N/A,,Mostly Cloudy,130,2013-05-08 09:35:00
4:55 AM,60.8,50.0,68,29.95,10.0,SE,4.6,-,N/A,,Overcast,140,2013-05-08 09:55:00
5:15 AM,60.8,50.0,68,29.94,10.0,SE,4.6,-,N/A,,Overcast,140,2013-05-08 10:15:00
5:35 AM,60.8,50.0,68,29.95,10.0,South,4.6,-,N/A,,Overcast,170,2013-05-08 10:35:00
5:55 AM,59.0,51.8,77,29.95,10.0,SE,5.8,-,N/A,,Overcast,130,2013-05-08 10:55:00
6:15 AM,60.8,53.6,77,29.95,10.0,SSE,4.6,-,N/A,,Overcast,160,2013-05-08 11:15:00
6:35 AM,59.0,53.6,82,29.95,10.0,ESE,4.6,-,N/A,,Mostly Cloudy,120,2013-05-08 11:35:00
6:55 AM,59.0,53.6,82,29.96,10.0,SSE,5.8,-,N/A,,Clear,150,2013-05-08 11:55:00
7:15 AM,60.8,53.6,77,29.96,10.0,SE,6.9,-,N/A,,Clear,140,2013-05-08 12:15:00
7:35 AM,62.6,55.4,77,29.97,10.0,SSE,6.9,-,N/A,,Clear,150,2013-05-08 12:35:00
7:55 AM,64.4,55.4,73,29.98,10.0,South,10.4,16.1,N/A,,Clear,170,2013-05-08 12:55:00
8:15 AM,64.4,55.4,73,29.98,10.0,South,10.4,-,N/A,,Clear,180,2013-05-08 13:15:00
8:35 AM,66.2,57.2,73,29.98,10.0,SSW,10.4,-,N/A,,Clear,200,2013-05-08 13:35:00
8:55 AM,68.0,57.2,68,29.98,10.0,South,15.0,-,N/A,,Clear,170,2013-05-08 13:55:00
9:15 AM,69.8,59.0,68,29.98,10.0,South,13.8,-,N/A,,Clear,180,2013-05-08 14:15:00
9:35 AM,73.4,59.0,61,29.98,10.0,South,15.0,23.0,N/A,,Clear,180,2013-05-08 14:35:00
9:55 AM,73.4,59.0,61,29.98,10.0,South,12.7,19.6,N/A,,Clear,170,2013-05-08 14:55:00
10:15 AM,75.2,59.0,57,29.98,10.0,South,13.8,19.6,N/A,,Clear,170,2013-05-08 15:15:00
10:35 AM,75.2,60.8,61,29.98,10.0,SSE,16.1,20.7,N/A,,Partly Cloudy,160,2013-05-08 15:35:00
10:55 AM,78.8,60.8,54,29.99,10.0,South,15.0,21.9,N/A,,Mostly Cloudy,190,2013-05-08 15:55:00
11:15 AM,77.0,60.8,57,29.98,10.0,SSE,13.8,19.6,N/A,,Overcast,160,2013-05-08 16:15:00
11:35 AM,77.0,60.8,57,29.98,10.0,South,15.0,-,N/A,,Overcast,180,2013-05-08 16:35:00
11:55 AM,77.0,60.8,57,29.98,10.0,SSE,15.0,23.0,N/A,,Overcast,160,2013-05-08 16:55:00
12:15 PM,75.2,60.8,61,29.99,10.0,SSE,13.8,19.6,N/A,,Overcast,160,2013-05-08 17:15:00
12:35 PM,77.0,60.8,57,29.98,10.0,South,15.0,19.6,N/A,,Overcast,190,2013-05-08 17:35:00
12:55 PM,77.0,60.8,57,29.98,10.0,South,17.3,20.7,N/A,,Overcast,180,2013-05-08 17:55:00
1:15 PM,75.2,60.8,61,29.98,10.0,South,13.8,-,N/A,,Overcast,180,2013-05-08 18:15:00
1:35 PM,75.2,60.8,61,29.98,10.0,South,11.5,24.2,N/A,,Overcast,170,2013-05-08 18:35:00
1:55 PM,75.2,60.8,61,29.98,10.0,South,12.7,18.4,N/A,,Overcast,170,2013-05-08 18:55:00
2:15 PM,75.2,60.8,61,29.97,10.0,South,12.7,19.6,N/A,,Overcast,170,2013-05-08 19:15:00
2:35 PM,75.2,60.8,61,29.97,10.0,South,15.0,-,N/A,,Overcast,170,2013-05-08 19:35:00
2:55 PM,75.2,60.8,61,29.97,10.0,South,16.1,21.9,N/A,,Overcast,190,2013-05-08 19:55:00
3:15 PM,75.2,60.8,61,29.96,10.0,SSE,13.8,18.4,N/A,,Overcast,160,2013-05-08 20:15:00
3:35 PM,77.0,62.6,61,29.95,10.0,South,16.1,-,N/A,,Overcast,170,2013-05-08 20:35:00
3:55 PM,75.2,62.6,65,29.94,10.0,South,12.7,17.3,N/A,,Overcast,170,2013-05-08 20:55:00
4:15 PM,75.2,60.8,61,29.94,10.0,SSE,13.8,19.6,N/A,,Overcast,160,2013-05-08 21:15:00
4:35 PM,77.0,62.6,61,29.94,10.0,South,10.4,-,N/A,,Overcast,180,2013-05-08 21:35:00
4:55 PM,75.2,62.6,65,29.94,10.0,South,16.1,21.9,N/A,,Overcast,170,2013-05-08 21:55:00
5:15 PM,77.0,62.6,61,29.92,10.0,South,15.0,-,N/A,,Overcast,180,2013-05-08 22:15:00
5:35 PM,77.0,62.6,61,29.92,10.0,South,13.8,19.6,N/A,,Overcast,170,2013-05-08 22:35:00
5:55 PM,77.0,62.6,61,29.91,10.0,South,15.0,21.9,N/A,,Overcast,180,2013-05-08 22:55:00
6:15 PM,75.2,62.6,65,29.89,10.0,SSE,13.8,21.9,N/A,,Overcast,150,2013-05-08 23:15:00
6:35 PM,75.2,62.6,65,29.89,10.0,South,13.8,20.7,N/A,,Overcast,170,2013-05-08 23:35:00
6:55 PM,75.2,62.6,65,29.88,10.0,SSE,16.1,20.7,N/A,,Overcast,160,2013-05-08 23:55:00
7:15 PM,75.2,62.6,65,29.89,10.0,SSE,17.3,21.9,N/A,,Overcast,160,2013-05-09 00:15:00
7:35 PM,75.2,62.6,65,29.90,10.0,SSE,11.5,17.3,N/A,,Overcast,150,2013-05-09 00:35:00
7:55 PM,75.2,62.6,65,29.90,10.0,South,6.9,-,N/A,,Overcast,170,2013-05-09 00:55:00
8:15 PM,75.2,62.6,65,29.90,10.0,SSE,10.4,-,N/A,,Overcast,160,2013-05-09 01:15:00
8:35 PM,73.4,62.6,69,29.90,10.0,SSE,10.4,-,N/A,,Mostly Cloudy,150,2013-05-09 01:35:00
8:55 PM,73.4,62.6,69,29.91,10.0,SSE,9.2,-,N/A,,Partly Cloudy,150,2013-05-09 01:55:00
9:15 PM,71.6,62.6,73,29.91,10.0,SE,9.2,-,N/A,,Partly Cloudy,140,2013-05-09 02:15:00
9:35 PM,71.6,62.6,73,29.91,10.0,SE,6.9,-,N/A,,Partly Cloudy,140,2013-05-09 02:35:00
9:55 PM,69.8,62.6,78,29.91,10.0,SSE,4.6,-,N/A,,Scattered Clouds,150,2013-05-09 02:55:00
10:15 PM,69.8,60.8,73,29.91,10.0,South,5.8,-,N/A,,Scattered Clouds,170,2013-05-09 03:15:00
10:35 PM,68.0,60.8,78,29.91,10.0,SSE,6.9,-,N/A,,Mostly Cloudy,160,2013-05-09 03:35:00
10:55 PM,68.0,62.6,83,29.91,10.0,SSE,6.9,-,N/A,,Mostly Cloudy,160,2013-05-09 03:55:00
11:15 PM,66.2,60.8,83,29.90,10.0,South,4.6,-,N/A,,Mostly Cloudy,170,2013-05-09 04:15:00